createdAt,value
2018-05-23T00:02:00.036Z,38.50
2018-05-23T00:04:27.482Z,41.07
2018-05-23T00:06:54.950Z,40.37
2018-05-23T00:09:22.503Z,31.73
2018-05-23T00:11:49.998Z,40.77
2018-05-23T00:14:17.855Z,38.10
2018-05-23T00:16:45.331Z,39.03
2018-05-23T00:19:12.843Z,43.57
2018-05-23T00:21:40.359Z,35.33
2018-05-23T00:24:07.855Z,35.83
2018-05-23T00:26:35.355Z,40.03
2018-05-23T00:29:02.934Z,36.63
2018-05-23T00:31:30.434Z,37.73
2018-05-23T00:33:57.935Z,37.70
2018-05-23T00:36:25.422Z,40.37
2018-05-23T00:38:52.906Z,43.70
2018-05-23T00:41:20.380Z,40.97
2018-05-23T00:43:47.846Z,41.30
2018-05-23T00:46:15.776Z,41.77
2018-05-23T00:48:43.308Z,42.90
2018-05-23T00:51:10.795Z,41.57
2018-05-23T00:53:38.267Z,37.30
2018-05-23T00:56:05.758Z,40.60
2018-05-23T00:58:33.687Z,42.47
2018-05-23T01:01:01.155Z,38.60
2018-05-23T01:03:28.671Z,32.77
2018-05-23T01:05:56.224Z,36.40
2018-05-23T01:08:23.706Z,33.83
2018-05-23T01:10:51.248Z,34.00
2018-05-23T01:13:18.736Z,34.20
2018-05-23T01:15:46.207Z,31.37
2018-05-23T01:18:13.697Z,30.53
2018-05-23T01:20:41.176Z,31.13
2018-05-23T01:23:08.718Z,28.80
2018-05-23T01:25:36.179Z,27.40
2018-05-23T01:28:03.649Z,35.50
2018-05-23T01:30:31.903Z,31.37
2018-05-23T01:32:59.395Z,29.83
2018-05-23T01:35:26.899Z,31.00
2018-05-23T01:37:54.806Z,28.37
2018-05-23T01:40:22.273Z,26.73
2018-05-23T01:42:49.760Z,28.60
2018-05-23T01:45:17.238Z,26.70
2018-05-23T01:47:45.194Z,27.70
2018-05-23T01:50:12.663Z,24.53
2018-05-23T01:52:40.545Z,32.67
2018-05-23T01:55:07.995Z,29.67
2018-05-23T01:57:35.479Z,24.30
2018-05-23T02:00:03.068Z,22.70
2018-05-23T02:02:30.558Z,23.80
2018-05-23T02:04:58.423Z,25.00
2018-05-23T02:07:26.307Z,22.90
2018-05-23T02:09:53.775Z,22.27
2018-05-23T02:12:21.310Z,21.53
2018-05-23T02:14:49.193Z,21.63
2018-05-23T02:17:16.686Z,20.03
2018-05-23T02:19:44.190Z,22.20
2018-05-23T02:22:12.057Z,22.20
2018-05-23T02:24:39.607Z,19.70
2018-05-23T02:27:07.471Z,23.37
2018-05-23T02:29:35.328Z,20.40
2018-05-23T02:32:03.246Z,21.57
2018-05-23T02:34:30.754Z,18.33
2018-05-23T02:36:58.301Z,20.03
2018-05-23T02:39:25.795Z,18.50
2018-05-23T02:41:53.243Z,20.50
2018-05-23T02:44:20.727Z,19.77
2018-05-23T02:46:48.228Z,17.83
2018-05-23T02:49:15.787Z,18.43
2018-05-23T02:51:43.287Z,18.37
2018-05-23T02:54:10.742Z,21.93
2018-05-23T02:56:38.233Z,20.73
2018-05-23T02:59:05.707Z,19.03
2018-05-23T03:01:33.248Z,18.97
2018-05-23T03:04:00.714Z,20.30
2018-05-23T03:06:28.217Z,16.73
2018-05-23T03:08:55.696Z,19.10
2018-05-23T03:11:23.257Z,17.83
2018-05-23T03:13:50.766Z,17.40
2018-05-23T03:16:18.630Z,17.03
2018-05-23T03:18:46.283Z,17.47
2018-05-23T03:21:13.851Z,16.40
2018-05-23T03:23:41.723Z,15.60
2018-05-23T03:26:09.631Z,16.27
2018-05-23T03:28:37.119Z,16.10
2018-05-23T03:31:04.637Z,20.73
2018-05-23T03:33:32.126Z,16.47
2018-05-23T03:35:59.715Z,18.37
2018-05-23T03:38:27.320Z,16.73
2018-05-23T03:40:54.861Z,16.47
2018-05-23T03:43:22.731Z,16.60
2018-05-23T03:45:50.222Z,17.27
2018-05-23T03:48:17.675Z,17.90
2018-05-23T03:50:45.194Z,25.30
2018-05-23T03:53:12.646Z,17.00
2018-05-23T03:55:40.556Z,16.93
2018-05-23T03:58:08.096Z,15.93
2018-05-23T04:00:47.511Z,17.17
2018-05-23T04:03:26.834Z,16.00
2018-05-23T04:06:06.582Z,17.47
2018-05-23T04:08:34.491Z,17.27
2018-05-23T04:11:01.985Z,14.73
2018-05-23T04:13:29.479Z,17.57
2018-05-23T04:15:57.373Z,14.63
2018-05-23T04:18:24.843Z,15.30
2018-05-23T04:20:52.318Z,16.00
2018-05-23T04:23:19.807Z,15.80
2018-05-23T04:25:47.303Z,14.63
2018-05-23T04:28:14.758Z,16.70
2018-05-23T04:30:42.263Z,14.10
2018-05-23T04:33:10.144Z,22.00
2018-05-23T04:35:38.059Z,13.40
2018-05-23T04:38:05.593Z,15.60
2018-05-23T04:40:33.066Z,15.00
2018-05-23T04:43:00.587Z,13.47
2018-05-23T04:45:28.111Z,13.90
2018-05-23T04:47:55.636Z,15.33
2018-05-23T04:50:23.158Z,15.47
2018-05-23T04:52:50.727Z,19.23
2018-05-23T04:55:18.243Z,15.67
2018-05-23T04:57:45.785Z,14.77
2018-05-23T05:00:13.300Z,14.90
2018-05-23T05:02:40.803Z,17.43
2018-05-23T05:05:08.504Z,19.20
2018-05-23T05:07:36.010Z,20.80
2018-05-23T05:10:03.563Z,18.73
2018-05-23T05:12:31.038Z,21.33
2018-05-23T05:14:58.552Z,22.63
2018-05-23T05:17:26.060Z,20.87
2018-05-23T05:19:53.618Z,21.90
2018-05-23T05:22:21.119Z,26.53
2018-05-23T05:24:48.720Z,26.10
2018-05-23T05:27:16.180Z,26.57
2018-05-23T05:29:43.638Z,24.67
2018-05-23T05:32:11.155Z,21.90
2018-05-23T05:34:39.067Z,27.40
2018-05-23T05:37:06.657Z,25.97
2018-05-23T05:39:34.448Z,24.83
2018-05-23T05:42:02.325Z,24.37
2018-05-23T05:44:30.488Z,22.17
2018-05-23T05:46:58.022Z,20.13
2018-05-23T05:49:25.533Z,23.57
2018-05-23T05:51:53.032Z,22.03
2018-05-23T05:54:21.837Z,23.03
2018-05-23T05:56:49.311Z,25.30
2018-05-23T05:59:16.762Z,32.53
2018-05-23T06:01:44.331Z,26.20
2018-05-23T06:04:13.088Z,26.07
2018-05-23T06:06:40.941Z,22.30
2018-05-23T06:09:08.427Z,22.97
2018-05-23T06:11:35.927Z,19.57
2018-05-23T06:14:03.483Z,22.47
2018-05-23T06:16:30.957Z,21.17
2018-05-23T06:18:58.415Z,20.70
2018-05-23T06:21:25.930Z,20.87
2018-05-23T06:23:53.436Z,19.77
2018-05-23T06:26:20.971Z,22.47
2018-05-23T06:28:49.039Z,20.63
2018-05-23T06:31:16.504Z,18.30
2018-05-23T06:33:43.984Z,19.47
2018-05-23T06:36:11.439Z,16.53
2018-05-23T06:38:38.979Z,20.40
2018-05-23T06:41:06.439Z,20.07
2018-05-23T06:43:42.825Z,24.00
2018-05-23T06:46:10.262Z,22.53
2018-05-23T06:48:37.710Z,19.17
2018-05-23T06:51:05.474Z,18.87
2018-05-23T06:53:32.954Z,20.47
2018-05-23T06:56:00.418Z,20.53
2018-05-23T06:58:28.330Z,22.47
2018-05-23T07:00:55.838Z,21.00
2018-05-23T07:03:23.786Z,19.93
2018-05-23T07:05:51.356Z,19.40
2018-05-23T07:08:18.766Z,18.17
2018-05-23T07:10:46.259Z,17.17
2018-05-23T07:13:13.803Z,17.23
2018-05-23T07:15:41.284Z,17.33
2018-05-23T07:18:08.864Z,17.10
2018-05-23T07:20:36.330Z,17.20
2018-05-23T07:23:03.866Z,18.20
2018-05-23T07:25:31.396Z,17.33
2018-05-23T07:27:58.940Z,17.43
2018-05-23T07:30:26.444Z,18.57
2018-05-23T07:32:54.322Z,21.53
2018-05-23T07:35:22.199Z,17.50
2018-05-23T07:37:49.724Z,18.67
2018-05-23T07:40:17.198Z,16.13
2018-05-23T07:42:45.103Z,21.50
2018-05-23T07:45:12.566Z,18.17
2018-05-23T07:47:40.075Z,19.00
2018-05-23T07:50:07.588Z,18.63
2018-05-23T07:52:35.111Z,21.70
2018-05-23T07:55:02.587Z,22.40
2018-05-23T07:57:30.121Z,18.67
2018-05-23T07:59:57.606Z,17.70
2018-05-23T08:02:25.082Z,18.90
2018-05-23T08:04:52.611Z,19.40
2018-05-23T08:07:20.123Z,18.77
2018-05-23T08:09:48.008Z,19.50
2018-05-23T08:12:16.558Z,20.07
2018-05-23T08:14:44.012Z,19.90
2018-05-23T08:17:11.530Z,20.43
2018-05-23T08:19:38.988Z,20.33
2018-05-23T08:22:06.454Z,20.90
2018-05-23T08:24:33.934Z,21.53
2018-05-23T08:27:01.419Z,18.87
2018-05-23T08:29:28.922Z,23.27
2018-05-23T08:31:56.411Z,20.57
2018-05-23T08:34:23.889Z,17.57
2018-05-23T08:36:51.771Z,19.13
2018-05-23T08:39:19.232Z,21.90
2018-05-23T08:41:46.750Z,16.93
2018-05-23T08:44:14.236Z,19.17
2018-05-23T08:46:42.099Z,19.47
2018-05-23T08:49:09.964Z,21.70
2018-05-23T08:51:37.466Z,18.70
2018-05-23T08:54:05.020Z,18.10
2018-05-23T08:56:32.766Z,20.20
2018-05-23T08:59:00.395Z,21.57
2018-05-23T09:01:27.964Z,24.23
2018-05-23T09:03:55.842Z,23.07
2018-05-23T09:06:23.731Z,21.87
2018-05-23T09:08:51.242Z,22.40
2018-05-23T09:11:18.951Z,20.70
2018-05-23T09:13:46.436Z,21.13
2018-05-23T09:16:13.960Z,22.93
2018-05-23T09:18:42.124Z,21.60
2018-05-23T09:21:10.609Z,20.33
2018-05-23T09:23:38.264Z,17.87
2018-05-23T09:26:05.740Z,18.03
2018-05-23T09:28:33.215Z,18.37
2018-05-23T09:31:00.709Z,16.70
2018-05-23T09:33:28.579Z,15.80
2018-05-23T09:35:56.459Z,15.83
2018-05-23T09:38:23.936Z,15.60
2018-05-23T09:40:51.462Z,16.33
2018-05-23T09:43:19.345Z,16.07
2018-05-23T09:45:46.825Z,14.90
2018-05-23T09:48:14.319Z,14.80
2018-05-23T09:50:41.792Z,16.80
2018-05-23T09:53:09.686Z,16.67
2018-05-23T09:55:37.176Z,16.20
2018-05-23T09:58:04.630Z,16.13
2018-05-23T10:00:32.769Z,15.70
2018-05-23T10:03:00.258Z,19.27
2018-05-23T10:05:27.736Z,16.27
2018-05-23T10:07:55.202Z,15.60
2018-05-23T10:10:22.718Z,17.20
2018-05-23T10:12:50.219Z,15.93
2018-05-23T10:15:19.093Z,15.67
2018-05-23T10:17:46.610Z,16.10
2018-05-23T10:20:14.144Z,17.47
2018-05-23T10:22:41.591Z,16.50
2018-05-23T10:25:09.063Z,14.43
2018-05-23T10:27:36.921Z,15.07
2018-05-23T10:30:04.389Z,15.60
2018-05-23T10:32:31.897Z,15.20
2018-05-23T10:34:59.350Z,15.27
2018-05-23T10:37:26.803Z,20.13
2018-05-23T10:39:54.285Z,16.13
2018-05-23T10:42:21.769Z,13.90
2018-05-23T10:44:49.242Z,18.80
2018-05-23T10:47:16.695Z,15.40
2018-05-23T10:49:44.153Z,15.87
2018-05-23T10:52:11.669Z,15.10
2018-05-23T10:54:39.070Z,16.20
2018-05-23T10:57:06.649Z,16.67
2018-05-23T10:59:34.046Z,15.17
2018-05-23T11:02:01.490Z,15.33
2018-05-23T11:04:28.982Z,15.43
2018-05-23T11:06:56.476Z,15.77
2018-05-23T11:09:23.983Z,15.53
2018-05-23T11:11:51.834Z,16.70
2018-05-23T11:14:19.323Z,15.13
2018-05-23T11:16:46.779Z,16.10
2018-05-23T11:19:14.231Z,14.30
2018-05-23T11:21:41.787Z,13.03
2018-05-23T11:24:09.626Z,12.30
2018-05-23T11:26:37.094Z,12.50
2018-05-23T11:29:04.541Z,10.63
2018-05-23T11:31:32.023Z,12.07
2018-05-23T11:33:59.935Z,11.80
2018-05-23T11:36:27.399Z,11.50
2018-05-23T11:38:54.921Z,11.13
2018-05-23T11:41:22.399Z,15.70
2018-05-23T11:43:49.844Z,13.37
2018-05-23T11:46:17.322Z,10.53
2018-05-23T11:48:44.779Z,10.67
2018-05-23T11:51:12.222Z,12.03
2018-05-23T11:53:39.705Z,10.63
2018-05-23T11:56:07.146Z,10.67
2018-05-23T11:58:34.692Z,11.10
2018-05-23T12:01:02.144Z,10.77
2018-05-23T12:03:29.598Z,11.20
2018-05-23T12:05:57.051Z,10.63
2018-05-23T12:08:24.528Z,10.60
2018-05-23T12:10:52.023Z,11.43
2018-05-23T12:13:19.893Z,11.00
2018-05-23T12:15:47.759Z,11.23
2018-05-23T12:18:15.626Z,10.77
2018-05-23T12:20:43.486Z,9.97
2018-05-23T12:23:10.987Z,13.60
2018-05-23T12:25:38.443Z,10.57
2018-05-23T12:28:05.919Z,10.70
2018-05-23T12:30:33.367Z,19.33
2018-05-23T12:33:00.846Z,11.03
2018-05-23T12:35:28.307Z,12.20
2018-05-23T12:37:55.754Z,12.20
2018-05-23T12:40:23.200Z,9.70
2018-05-23T12:42:50.671Z,13.20
2018-05-23T12:45:18.137Z,10.93
2018-05-23T12:47:45.592Z,10.33
2018-05-23T12:50:13.046Z,13.40
2018-05-23T12:52:40.492Z,10.73
2018-05-23T12:55:07.958Z,11.50
2018-05-23T12:57:35.435Z,10.47
2018-05-23T13:00:02.959Z,11.03
2018-05-23T13:02:30.425Z,10.70
2018-05-23T13:04:57.907Z,11.30
2018-05-23T13:07:25.760Z,11.20
2018-05-23T13:09:53.206Z,10.30
2018-05-23T13:12:20.730Z,10.23
2018-05-23T13:14:48.562Z,11.97
2018-05-23T13:17:16.034Z,10.17
2018-05-23T13:19:43.501Z,10.33
2018-05-23T13:22:10.950Z,10.07
2018-05-23T13:24:38.441Z,9.57
2018-05-23T13:27:05.879Z,9.70
2018-05-23T13:29:33.347Z,10.33
2018-05-23T13:32:00.790Z,9.23
2018-05-23T13:34:28.266Z,9.73
2018-05-23T13:36:55.744Z,11.17
2018-05-23T13:39:23.200Z,9.70
2018-05-23T13:41:50.681Z,9.67
2018-05-23T13:44:18.528Z,8.20
2018-05-23T13:46:45.991Z,9.30
2018-05-23T13:49:13.479Z,9.53
2018-05-23T13:51:40.925Z,8.00
2018-05-23T13:54:08.411Z,9.07
2018-05-23T13:56:35.861Z,9.20
2018-05-23T13:59:03.320Z,8.27
2018-05-23T14:01:30.835Z,9.37
2018-05-23T14:03:58.303Z,8.20
2018-05-23T14:06:26.145Z,8.60
2018-05-23T14:08:53.635Z,8.00
2018-05-23T14:11:21.115Z,9.50
2018-05-23T14:13:48.594Z,8.57
2018-05-23T14:16:16.040Z,8.03
2018-05-23T14:18:43.520Z,8.47
2018-05-23T14:21:10.994Z,11.10
2018-05-23T14:23:38.474Z,9.00
2018-05-23T14:26:06.015Z,8.63
2018-05-23T14:28:33.868Z,9.10
2018-05-23T14:31:01.326Z,7.30
2018-05-23T14:33:28.775Z,8.23
2018-05-23T14:35:56.272Z,9.07
2018-05-23T14:38:23.723Z,10.10
2018-05-23T14:40:51.174Z,9.63
2018-05-23T14:43:19.051Z,9.43
2018-05-23T14:45:46.487Z,8.20
2018-05-23T14:48:14.338Z,9.40
2018-05-23T14:50:41.879Z,10.00
2018-05-23T14:53:09.371Z,11.23
2018-05-23T14:55:37.208Z,8.73
2018-05-23T14:58:04.666Z,8.77
2018-05-23T15:00:32.118Z,9.90
2018-05-23T15:02:59.655Z,8.63
2018-05-23T15:05:27.139Z,9.53
2018-05-23T15:07:54.578Z,10.13
2018-05-23T15:10:22.034Z,10.77
2018-05-23T15:12:49.510Z,10.83
2018-05-23T15:15:17.069Z,9.97
2018-05-23T15:17:44.514Z,10.20
2018-05-23T15:20:12.047Z,10.70
2018-05-23T15:22:39.506Z,11.13
2018-05-23T15:25:06.958Z,11.20
2018-05-23T15:27:34.498Z,9.60
2018-05-23T15:30:01.934Z,10.43
2018-05-23T15:32:29.432Z,9.77
2018-05-23T15:34:56.879Z,9.37
2018-05-23T15:37:24.358Z,9.87
2018-05-23T15:39:51.866Z,10.83
2018-05-23T15:42:19.742Z,12.73
2018-05-23T15:44:47.239Z,9.37
2018-05-23T15:47:14.712Z,9.60
2018-05-23T15:49:42.167Z,11.27
2018-05-23T15:52:09.694Z,10.27
2018-05-23T15:54:37.165Z,10.57
2018-05-23T15:57:04.643Z,12.87
2018-05-23T15:59:32.097Z,11.53
2018-05-23T16:01:59.543Z,8.83
2018-05-23T16:04:27.078Z,9.10
2018-05-23T16:06:54.530Z,10.23
2018-05-23T16:09:22.053Z,9.63
2018-05-23T16:11:49.418Z,9.80
2018-05-23T16:14:16.866Z,9.27
2018-05-23T16:16:44.724Z,9.70
2018-05-23T16:19:12.562Z,8.20
2018-05-23T16:21:40.002Z,7.43
2018-05-23T16:24:07.479Z,6.80
2018-05-23T16:26:34.924Z,6.77
2018-05-23T16:29:02.460Z,7.27
2018-05-23T16:31:29.899Z,7.00
2018-05-23T16:33:57.356Z,7.33
2018-05-23T16:36:24.810Z,7.80
2018-05-23T16:38:52.282Z,7.00
2018-05-23T16:41:19.790Z,6.20
2018-05-23T16:43:47.264Z,6.80
2018-05-23T16:46:15.138Z,6.93
2018-05-23T16:48:42.981Z,7.53
2018-05-23T16:51:10.486Z,7.37
2018-05-23T16:53:37.975Z,7.67
2018-05-23T16:56:05.422Z,7.43
2018-05-23T16:58:32.894Z,7.63
2018-05-23T17:01:00.368Z,7.63
2018-05-23T17:03:27.806Z,7.07
2018-05-23T17:05:55.271Z,9.80
2018-05-23T17:08:22.726Z,7.17
2018-05-23T17:10:51.231Z,7.70
2018-05-23T17:13:19.079Z,7.17
2018-05-23T17:15:46.972Z,6.77
2018-05-23T17:18:14.513Z,7.60
2018-05-23T17:20:42.386Z,8.60
2018-05-23T17:23:10.290Z,7.87
2018-05-23T17:25:37.755Z,9.60
2018-05-23T17:28:05.239Z,8.60
2018-05-23T17:30:32.743Z,18.40
2018-05-23T17:33:00.217Z,9.60
2018-05-23T17:35:27.690Z,8.50
2018-05-23T17:37:55.166Z,8.60
2018-05-23T17:40:22.656Z,8.77
2018-05-23T17:42:50.219Z,8.93
2018-05-23T17:45:18.055Z,8.60
2018-05-23T17:47:45.531Z,11.33
2018-05-23T17:50:13.403Z,11.20
2018-05-23T17:52:41.261Z,9.33
2018-05-23T17:55:09.116Z,9.87
2018-05-23T17:57:36.585Z,10.07
2018-05-23T18:00:04.455Z,9.90
2018-05-23T18:02:32.298Z,9.60
2018-05-23T18:04:59.767Z,9.47
2018-05-23T18:07:27.335Z,11.97
2018-05-23T18:09:54.789Z,13.43
2018-05-23T18:12:22.643Z,10.50
2018-05-23T18:14:50.088Z,10.60
2018-05-23T18:17:17.540Z,10.17
2018-05-23T18:19:45.071Z,10.00
2018-05-23T18:22:12.515Z,10.87
2018-05-23T18:24:39.980Z,9.80
2018-05-23T18:27:07.471Z,11.63
2018-05-23T18:29:34.957Z,12.00
2018-05-23T18:32:02.450Z,9.33
2018-05-23T18:34:29.895Z,10.90
2018-05-23T18:36:57.431Z,10.20
2018-05-23T18:39:24.806Z,10.30
2018-05-23T18:41:52.284Z,10.73
2018-05-23T18:44:19.770Z,10.47
2018-05-23T18:46:47.223Z,10.80
2018-05-23T18:49:14.765Z,9.70
2018-05-23T18:51:42.537Z,13.53
2018-05-23T18:54:10.016Z,11.63
2018-05-23T18:56:37.549Z,10.87
2018-05-23T18:59:04.984Z,11.23
2018-05-23T19:01:32.534Z,10.60
2018-05-23T19:04:00.008Z,13.37
2018-05-23T19:06:27.471Z,10.30
2018-05-23T19:08:55.027Z,14.03
2018-05-23T19:11:22.458Z,10.80
2018-05-23T19:13:49.952Z,10.60
2018-05-23T19:16:17.410Z,11.20
2018-05-23T19:18:44.887Z,12.10
2018-05-23T19:21:12.426Z,10.63
2018-05-23T19:23:39.906Z,10.27
2018-05-23T19:26:07.743Z,10.57
2018-05-23T19:28:35.218Z,13.83
2018-05-23T19:31:02.663Z,10.37
2018-05-23T19:33:30.202Z,11.00
2018-05-23T19:35:57.692Z,11.63
2018-05-23T19:38:25.172Z,11.07
2018-05-23T19:40:53.042Z,11.27
2018-05-23T19:43:20.490Z,10.27
2018-05-23T19:45:48.004Z,12.17
2018-05-23T19:48:15.458Z,11.53
2018-05-23T19:50:42.902Z,11.67
2018-05-23T19:53:10.378Z,11.67
2018-05-23T19:55:37.859Z,11.20
2018-05-23T19:58:05.792Z,12.03
2018-05-23T20:00:33.242Z,11.50
2018-05-23T20:03:00.718Z,12.07
2018-05-23T20:05:28.174Z,11.77
2018-05-23T20:07:56.589Z,10.77
2018-05-23T20:10:23.999Z,10.87
2018-05-23T20:12:51.452Z,12.10
2018-05-23T20:15:19.007Z,11.53
2018-05-23T20:17:46.463Z,11.70
2018-05-23T20:20:13.905Z,10.80
2018-05-23T20:22:41.412Z,10.10
2018-05-23T20:25:08.888Z,10.67
2018-05-23T20:27:36.746Z,11.37
2018-05-23T20:30:04.636Z,10.07
2018-05-23T20:32:32.087Z,10.47
2018-05-23T20:34:59.627Z,11.00
2018-05-23T20:37:27.087Z,11.57
2018-05-23T20:39:54.951Z,10.93
2018-05-23T20:42:22.816Z,11.27
2018-05-23T20:44:50.691Z,11.47
2018-05-23T20:47:18.170Z,11.30
2018-05-23T20:49:45.642Z,16.10
2018-05-23T20:52:13.079Z,12.43
2018-05-23T20:54:40.563Z,10.63
2018-05-23T20:57:08.012Z,11.50
2018-05-23T20:59:35.530Z,11.63
2018-05-23T21:02:03.372Z,10.70
2018-05-23T21:04:30.843Z,10.23
2018-05-23T21:06:58.693Z,12.70
2018-05-23T21:09:26.162Z,10.97
2018-05-23T21:11:54.007Z,11.00
2018-05-23T21:14:21.491Z,10.83
2018-05-23T21:16:49.335Z,10.47
2018-05-23T21:19:16.806Z,10.47
2018-05-23T21:21:44.269Z,9.30
2018-05-23T21:24:12.128Z,9.53
2018-05-23T21:26:40.007Z,10.90
2018-05-23T21:29:07.843Z,13.20
2018-05-23T21:31:35.330Z,9.63
2018-05-23T21:34:03.210Z,9.77
2018-05-23T21:36:30.847Z,10.60
2018-05-23T21:38:58.718Z,9.43
2018-05-23T21:41:26.556Z,10.07
2018-05-23T21:43:54.012Z,9.40
2018-05-23T21:46:21.470Z,13.90
2018-05-23T21:48:49.007Z,9.53
2018-05-23T21:51:16.478Z,9.10
2018-05-23T21:53:44.035Z,9.80
2018-05-23T21:56:11.567Z,10.00
2018-05-23T21:58:39.011Z,9.07
2018-05-23T22:01:06.515Z,9.30
2018-05-23T22:03:33.969Z,10.53
2018-05-23T22:06:01.426Z,9.93
2018-05-23T22:08:28.891Z,9.50
2018-05-23T22:10:56.739Z,10.20
2018-05-23T22:13:24.242Z,9.80
2018-05-23T22:15:51.755Z,10.00
2018-05-23T22:18:19.221Z,10.70
2018-05-23T22:20:46.689Z,10.20
2018-05-23T22:23:14.132Z,10.87
2018-05-23T22:25:41.660Z,8.03
2018-05-23T22:28:09.131Z,9.43
2018-05-23T22:30:36.613Z,13.60
2018-05-23T22:33:04.090Z,9.80
2018-05-23T22:35:31.947Z,9.63
2018-05-23T22:37:59.827Z,10.60
2018-05-23T22:40:27.682Z,10.23
2018-05-23T22:42:55.160Z,11.10
2018-05-23T22:45:22.637Z,12.43
2018-05-23T22:47:50.088Z,11.60
2018-05-23T22:50:17.610Z,10.17
2018-05-23T22:52:45.470Z,14.40
2018-05-23T22:55:13.327Z,11.07
2018-05-23T22:57:41.189Z,11.60
2018-05-23T23:00:08.674Z,10.77
2018-05-23T23:02:36.135Z,11.07
2018-05-23T23:05:03.606Z,10.37
2018-05-23T23:07:31.138Z,12.03
2018-05-23T23:09:59.050Z,11.70
2018-05-23T23:12:26.550Z,18.87
2018-05-23T23:14:54.447Z,11.77
2018-05-23T23:17:21.915Z,13.00
2018-05-23T23:19:49.398Z,11.43
2018-05-23T23:22:28.700Z,11.47
2018-05-23T23:24:56.342Z,11.90
2018-05-23T23:27:23.814Z,10.63
2018-05-23T23:29:51.290Z,10.97
2018-05-23T23:32:18.766Z,14.37
2018-05-23T23:34:46.232Z,12.67
2018-05-23T23:37:13.719Z,12.60
2018-05-23T23:39:41.196Z,12.23
2018-05-23T23:42:08.727Z,12.63
2018-05-23T23:44:36.664Z,14.23
2018-05-23T23:47:04.122Z,12.33
2018-05-23T23:49:31.551Z,12.90
2018-05-23T23:51:59.118Z,13.97
2018-05-23T23:54:26.660Z,12.43
2018-05-23T23:56:54.163Z,12.67
2018-05-23T23:59:21.623Z,12.93
